sensor_id;sensor_type;location;lat;lon;timestamp;P1;durP1;ratioP1;P2;durP2;ratioP2
10463;SDS011;5279;42.048;24.638;2024-02-16T00:02:03;4.07;;;2.90;;
10463;SDS011;5279;42.048;24.638;2024-02-16T00:04:30;2.87;;;2.57;;
10463;SDS011;5279;42.048;24.638;2024-02-16T00:06:57;3.40;;;2.67;;
10463;SDS011;5279;42.048;24.638;2024-02-16T00:09:23;3.33;;;2.93;;
10463;SDS011;5279;42.048;24.638;2024-02-16T00:11:51;2.90;;;2.63;;
10463;SDS011;5279;42.048;24.638;2024-02-16T00:14:18;3.50;;;3.20;;
10463;SDS011;5279;42.048;24.638;2024-02-16T00:16:47;6.63;;;3.20;;
10463;SDS011;5279;42.048;24.638;2024-02-16T00:19:14;2.60;;;2.40;;
10463;SDS011;5279;42.048;24.638;2024-02-16T00:21:40;3.13;;;2.83;;
10463;SDS011;5279;42.048;24.638;2024-02-16T00:24:07;4.10;;;2.83;;
10463;SDS011;5279;42.048;24.638;2024-02-16T00:26:34;2.50;;;2.30;;
10463;SDS011;5279;42.048;24.638;2024-02-16T00:29:02;4.00;;;3.10;;
10463;SDS011;5279;42.048;24.638;2024-02-16T00:31:29;3.00;;;2.70;;
10463;SDS011;5279;42.048;24.638;2024-02-16T00:33:56;3.07;;;2.87;;
10463;SDS011;5279;42.048;24.638;2024-02-16T00:36:23;3.13;;;2.80;;
10463;SDS011;5279;42.048;24.638;2024-02-16T00:38:49;3.50;;;2.17;;
10463;SDS011;5279;42.048;24.638;2024-02-16T00:41:16;2.90;;;2.60;;
10463;SDS011;5279;42.048;24.638;2024-02-16T00:43:45;3.03;;;2.53;;
10463;SDS011;5279;42.048;24.638;2024-02-16T00:46:13;3.07;;;2.40;;
10463;SDS011;5279;42.048;24.638;2024-02-16T00:48:40;4.87;;;2.70;;
10463;SDS011;5279;42.048;24.638;2024-02-16T00:51:07;3.67;;;2.50;;
10463;SDS011;5279;42.048;24.638;2024-02-16T00:53:40;3.10;;;2.27;;
10463;SDS011;5279;42.048;24.638;2024-02-16T00:56:07;3.20;;;2.57;;
10463;SDS011;5279;42.048;24.638;2024-02-16T00:58:33;2.70;;;2.50;;
10463;SDS011;5279;42.048;24.638;2024-02-16T01:01:00;2.40;;;2.20;;
10463;SDS011;5279;42.048;24.638;2024-02-16T01:03:30;2.67;;;2.00;;
10463;SDS011;5279;42.048;24.638;2024-02-16T01:05:57;4.53;;;2.30;;
10463;SDS011;5279;42.048;24.638;2024-02-16T01:08:23;4.67;;;2.37;;
10463;SDS011;5279;42.048;24.638;2024-02-16T01:10:52;2.83;;;2.30;;
10463;SDS011;5279;42.048;24.638;2024-02-16T01:13:19;3.67;;;2.10;;
10463;SDS011;5279;42.048;24.638;2024-02-16T01:15:46;2.73;;;2.50;;
10463;SDS011;5279;42.048;24.638;2024-02-16T01:18:13;2.57;;;2.37;;
10463;SDS011;5279;42.048;24.638;2024-02-16T01:20:41;2.40;;;2.20;;
10463;SDS011;5279;42.048;24.638;2024-02-16T01:23:08;3.73;;;2.50;;
10463;SDS011;5279;42.048;24.638;2024-02-16T01:25:34;4.40;;;2.37;;
10463;SDS011;5279;42.048;24.638;2024-02-16T01:28:01;2.73;;;2.23;;
10463;SDS011;5279;42.048;24.638;2024-02-16T01:30:28;2.93;;;2.20;;
10463;SDS011;5279;42.048;24.638;2024-02-16T01:32:54;3.33;;;2.10;;
10463;SDS011;5279;42.048;24.638;2024-02-16T01:35:21;2.43;;;2.23;;
10463;SDS011;5279;42.048;24.638;2024-02-16T01:37:49;2.20;;;2.00;;
10463;SDS011;5279;42.048;24.638;2024-02-16T01:40:16;2.70;;;1.90;;
10463;SDS011;5279;42.048;24.638;2024-02-16T01:42:43;2.47;;;2.27;;
10463;SDS011;5279;42.048;24.638;2024-02-16T01:45:10;2.37;;;2.17;;
10463;SDS011;5279;42.048;24.638;2024-02-16T01:47:37;2.33;;;2.13;;
10463;SDS011;5279;42.048;24.638;2024-02-16T01:50:05;3.17;;;2.30;;
10463;SDS011;5279;42.048;24.638;2024-02-16T01:52:33;2.27;;;2.07;;
10463;SDS011;5279;42.048;24.638;2024-02-16T01:55:03;2.17;;;1.97;;
10463;SDS011;5279;42.048;24.638;2024-02-16T01:57:30;2.00;;;1.80;;
10463;SDS011;5279;42.048;24.638;2024-02-16T01:59:57;2.30;;;2.10;;
10463;SDS011;5279;42.048;24.638;2024-02-16T02:02:24;2.23;;;2.10;;
10463;SDS011;5279;42.048;24.638;2024-02-16T02:04:52;2.40;;;2.20;;
10463;SDS011;5279;42.048;24.638;2024-02-16T02:07:24;2.27;;;2.07;;
10463;SDS011;5279;42.048;24.638;2024-02-16T02:09:52;2.93;;;2.03;;
10463;SDS011;5279;42.048;24.638;2024-02-16T02:12:20;2.40;;;2.20;;
10463;SDS011;5279;42.048;24.638;2024-02-16T02:14:48;3.50;;;2.10;;
10463;SDS011;5279;42.048;24.638;2024-02-16T02:17:14;2.40;;;2.20;;
10463;SDS011;5279;42.048;24.638;2024-02-16T02:19:41;2.60;;;2.40;;
10463;SDS011;5279;42.048;24.638;2024-02-16T02:22:12;2.40;;;1.83;;
10463;SDS011;5279;42.048;24.638;2024-02-16T02:24:40;2.20;;;2.00;;
10463;SDS011;5279;42.048;24.638;2024-02-16T02:27:07;2.27;;;2.07;;
10463;SDS011;5279;42.048;24.638;2024-02-16T02:29:33;2.33;;;2.10;;
10463;SDS011;5279;42.048;24.638;2024-02-16T02:31:59;2.50;;;2.20;;
10463;SDS011;5279;42.048;24.638;2024-02-16T02:34:26;2.73;;;1.80;;
10463;SDS011;5279;42.048;24.638;2024-02-16T02:36:53;2.87;;;2.00;;
10463;SDS011;5279;42.048;24.638;2024-02-16T02:39:21;2.27;;;2.00;;
10463;SDS011;5279;42.048;24.638;2024-02-16T02:41:48;2.50;;;2.10;;
10463;SDS011;5279;42.048;24.638;2024-02-16T02:44:15;1.73;;;1.63;;
10463;SDS011;5279;42.048;24.638;2024-02-16T02:46:41;2.20;;;2.00;;
10463;SDS011;5279;42.048;24.638;2024-02-16T02:49:08;2.20;;;2.00;;
10463;SDS011;5279;42.048;24.638;2024-02-16T02:51:35;2.30;;;2.10;;
10463;SDS011;5279;42.048;24.638;2024-02-16T02:54:02;1.90;;;1.80;;
10463;SDS011;5279;42.048;24.638;2024-02-16T02:56:30;2.03;;;1.93;;
10463;SDS011;5279;42.048;24.638;2024-02-16T02:58:57;2.43;;;2.23;;
10463;SDS011;5279;42.048;24.638;2024-02-16T03:01:23;2.10;;;1.90;;
10463;SDS011;5279;42.048;24.638;2024-02-16T03:03:50;2.30;;;2.07;;
10463;SDS011;5279;42.048;24.638;2024-02-16T03:06:17;2.20;;;2.00;;
10463;SDS011;5279;42.048;24.638;2024-02-16T03:08:44;2.27;;;2.07;;
10463;SDS011;5279;42.048;24.638;2024-02-16T03:11:11;2.93;;;2.30;;
10463;SDS011;5279;42.048;24.638;2024-02-16T03:13:39;1.90;;;1.80;;
10463;SDS011;5279;42.048;24.638;2024-02-16T03:16:06;2.40;;;2.20;;
10463;SDS011;5279;42.048;24.638;2024-02-16T03:18:33;4.27;;;2.40;;
10463;SDS011;5279;42.048;24.638;2024-02-16T03:21:00;2.07;;;1.87;;
10463;SDS011;5279;42.048;24.638;2024-02-16T03:23:27;3.37;;;2.10;;
10463;SDS011;5279;42.048;24.638;2024-02-16T03:25:54;2.47;;;2.07;;
10463;SDS011;5279;42.048;24.638;2024-02-16T03:28:21;2.20;;;2.00;;
10463;SDS011;5279;42.048;24.638;2024-02-16T03:30:49;2.10;;;1.80;;
10463;SDS011;5279;42.048;24.638;2024-02-16T03:33:16;2.53;;;2.30;;
10463;SDS011;5279;42.048;24.638;2024-02-16T03:35:43;2.43;;;2.17;;
10463;SDS011;5279;42.048;24.638;2024-02-16T03:38:09;2.43;;;2.20;;
10463;SDS011;5279;42.048;24.638;2024-02-16T03:40:36;2.13;;;1.93;;
10463;SDS011;5279;42.048;24.638;2024-02-16T03:43:03;1.90;;;1.80;;
10463;SDS011;5279;42.048;24.638;2024-02-16T03:45:30;2.40;;;2.00;;
10463;SDS011;5279;42.048;24.638;2024-02-16T03:47:59;2.07;;;1.93;;
10463;SDS011;5279;42.048;24.638;2024-02-16T03:50:26;2.17;;;2.07;;
10463;SDS011;5279;42.048;24.638;2024-02-16T03:52:53;3.20;;;2.13;;
10463;SDS011;5279;42.048;24.638;2024-02-16T03:55:19;3.30;;;2.03;;
10463;SDS011;5279;42.048;24.638;2024-02-16T03:57:46;2.23;;;2.13;;
10463;SDS011;5279;42.048;24.638;2024-02-16T04:00:13;2.27;;;2.07;;
10463;SDS011;5279;42.048;24.638;2024-02-16T04:02:40;1.87;;;1.77;;
10463;SDS011;5279;42.048;24.638;2024-02-16T04:05:09;2.60;;;2.27;;
10463;SDS011;5279;42.048;24.638;2024-02-16T04:07:35;2.30;;;2.10;;
10463;SDS011;5279;42.048;24.638;2024-02-16T04:10:02;2.20;;;2.00;;
10463;SDS011;5279;42.048;24.638;2024-02-16T04:12:29;1.90;;;1.80;;
10463;SDS011;5279;42.048;24.638;2024-02-16T04:14:56;3.50;;;2.07;;
10463;SDS011;5279;42.048;24.638;2024-02-16T04:17:23;2.20;;;2.00;;
10463;SDS011;5279;42.048;24.638;2024-02-16T04:19:50;2.10;;;1.90;;
10463;SDS011;5279;42.048;24.638;2024-02-16T04:22:18;1.97;;;1.83;;
10463;SDS011;5279;42.048;24.638;2024-02-16T04:24:45;1.90;;;1.70;;
10463;SDS011;5279;42.048;24.638;2024-02-16T04:27:12;2.93;;;2.00;;
10463;SDS011;5279;42.048;24.638;2024-02-16T04:29:39;1.87;;;1.77;;
10463;SDS011;5279;42.048;24.638;2024-02-16T04:32:05;2.20;;;2.00;;
10463;SDS011;5279;42.048;24.638;2024-02-16T04:34:32;2.50;;;1.80;;
10463;SDS011;5279;42.048;24.638;2024-02-16T04:36:59;2.17;;;1.97;;
10463;SDS011;5279;42.048;24.638;2024-02-16T04:39:27;2.00;;;1.90;;
10463;SDS011;5279;42.048;24.638;2024-02-16T04:41:55;2.33;;;2.13;;
10463;SDS011;5279;42.048;24.638;2024-02-16T04:44:21;1.90;;;1.70;;
10463;SDS011;5279;42.048;24.638;2024-02-16T04:46:50;2.10;;;1.90;;
10463;SDS011;5279;42.048;24.638;2024-02-16T04:49:18;2.00;;;1.87;;
10463;SDS011;5279;42.048;24.638;2024-02-16T04:51:45;2.20;;;2.00;;
10463;SDS011;5279;42.048;24.638;2024-02-16T04:54:12;2.10;;;2.00;;
10463;SDS011;5279;42.048;24.638;2024-02-16T04:56:40;1.70;;;1.60;;
10463;SDS011;5279;42.048;24.638;2024-02-16T04:59:07;2.07;;;1.87;;
10463;SDS011;5279;42.048;24.638;2024-02-16T05:01:34;2.23;;;2.03;;
10463;SDS011;5279;42.048;24.638;2024-02-16T05:04:01;2.30;;;1.53;;
10463;SDS011;5279;42.048;24.638;2024-02-16T05:06:28;2.43;;;1.90;;
10463;SDS011;5279;42.048;24.638;2024-02-16T05:08:56;2.20;;;2.00;;
10463;SDS011;5279;42.048;24.638;2024-02-16T05:11:23;2.20;;;2.00;;
10463;SDS011;5279;42.048;24.638;2024-02-16T05:13:51;2.63;;;2.00;;
10463;SDS011;5279;42.048;24.638;2024-02-16T05:16:18;2.00;;;1.90;;
10463;SDS011;5279;42.048;24.638;2024-02-16T05:18:44;1.80;;;1.70;;
10463;SDS011;5279;42.048;24.638;2024-02-16T05:21:11;1.80;;;1.70;;
10463;SDS011;5279;42.048;24.638;2024-02-16T05:23:38;1.70;;;1.60;;
10463;SDS011;5279;42.048;24.638;2024-02-16T05:26:05;1.70;;;1.60;;
10463;SDS011;5279;42.048;24.638;2024-02-16T05:28:32;1.87;;;1.77;;
10463;SDS011;5279;42.048;24.638;2024-02-16T05:31:00;2.23;;;2.03;;
10463;SDS011;5279;42.048;24.638;2024-02-16T05:33:39;1.70;;;1.60;;
10463;SDS011;5279;42.048;24.638;2024-02-16T05:36:06;1.97;;;1.87;;
10463;SDS011;5279;42.048;24.638;2024-02-16T05:38:34;1.67;;;1.57;;
10463;SDS011;5279;42.048;24.638;2024-02-16T05:41:05;2.00;;;1.80;;
10463;SDS011;5279;42.048;24.638;2024-02-16T05:43:33;1.90;;;1.80;;
10463;SDS011;5279;42.048;24.638;2024-02-16T05:46:01;1.77;;;1.67;;
10463;SDS011;5279;42.048;24.638;2024-02-16T05:48:28;1.80;;;1.70;;
10463;SDS011;5279;42.048;24.638;2024-02-16T05:50:56;1.73;;;1.63;;
10463;SDS011;5279;42.048;24.638;2024-02-16T05:53:25;2.00;;;1.90;;
10463;SDS011;5279;42.048;24.638;2024-02-16T05:55:53;1.67;;;1.57;;
10463;SDS011;5279;42.048;24.638;2024-02-16T05:58:20;2.00;;;1.90;;
10463;SDS011;5279;42.048;24.638;2024-02-16T06:00:48;2.60;;;1.90;;
10463;SDS011;5279;42.048;24.638;2024-02-16T06:03:16;2.03;;;1.70;;
10463;SDS011;5279;42.048;24.638;2024-02-16T06:05:43;2.33;;;1.83;;
10463;SDS011;5279;42.048;24.638;2024-02-16T06:08:10;2.83;;;1.87;;
10463;SDS011;5279;42.048;24.638;2024-02-16T06:10:37;1.87;;;1.77;;
10463;SDS011;5279;42.048;24.638;2024-02-16T06:13:04;1.87;;;1.77;;
10463;SDS011;5279;42.048;24.638;2024-02-16T06:15:31;1.70;;;1.60;;
10463;SDS011;5279;42.048;24.638;2024-02-16T06:17:59;1.53;;;1.43;;
10463;SDS011;5279;42.048;24.638;2024-02-16T06:20:27;1.50;;;1.40;;
10463;SDS011;5279;42.048;24.638;2024-02-16T06:22:54;1.70;;;1.60;;
10463;SDS011;5279;42.048;24.638;2024-02-16T06:25:21;1.90;;;1.67;;
10463;SDS011;5279;42.048;24.638;2024-02-16T06:27:51;1.70;;;1.60;;
10463;SDS011;5279;42.048;24.638;2024-02-16T06:30:18;1.63;;;1.53;;
10463;SDS011;5279;42.048;24.638;2024-02-16T06:32:45;1.83;;;1.73;;
10463;SDS011;5279;42.048;24.638;2024-02-16T06:35:12;1.83;;;1.60;;
10463;SDS011;5279;42.048;24.638;2024-02-16T06:37:41;1.77;;;1.67;;
10463;SDS011;5279;42.048;24.638;2024-02-16T06:40:08;1.40;;;1.30;;
10463;SDS011;5279;42.048;24.638;2024-02-16T06:42:35;1.50;;;1.40;;
10463;SDS011;5279;42.048;24.638;2024-02-16T06:45:02;1.63;;;1.53;;
10463;SDS011;5279;42.048;24.638;2024-02-16T06:47:30;1.40;;;1.30;;
10463;SDS011;5279;42.048;24.638;2024-02-16T06:50:00;1.47;;;1.37;;
10463;SDS011;5279;42.048;24.638;2024-02-16T06:52:27;1.80;;;1.70;;
10463;SDS011;5279;42.048;24.638;2024-02-16T06:54:55;1.73;;;1.63;;
10463;SDS011;5279;42.048;24.638;2024-02-16T06:57:22;1.27;;;1.20;;
10463;SDS011;5279;42.048;24.638;2024-02-16T06:59:50;1.90;;;1.80;;
10463;SDS011;5279;42.048;24.638;2024-02-16T07:02:18;1.60;;;1.50;;
10463;SDS011;5279;42.048;24.638;2024-02-16T07:04:44;1.70;;;1.60;;
10463;SDS011;5279;42.048;24.638;2024-02-16T07:07:11;1.50;;;1.40;;
10463;SDS011;5279;42.048;24.638;2024-02-16T07:09:38;1.73;;;1.63;;
10463;SDS011;5279;42.048;24.638;2024-02-16T07:12:07;1.60;;;1.50;;
10463;SDS011;5279;42.048;24.638;2024-02-16T07:14:34;1.83;;;1.70;;
10463;SDS011;5279;42.048;24.638;2024-02-16T07:17:00;1.63;;;1.53;;
10463;SDS011;5279;42.048;24.638;2024-02-16T07:19:27;2.03;;;1.80;;
10463;SDS011;5279;42.048;24.638;2024-02-16T07:21:54;1.40;;;1.30;;
10463;SDS011;5279;42.048;24.638;2024-02-16T07:24:20;1.40;;;1.30;;
10463;SDS011;5279;42.048;24.638;2024-02-16T07:26:47;1.30;;;1.20;;
10463;SDS011;5279;42.048;24.638;2024-02-16T07:29:15;1.53;;;1.43;;
10463;SDS011;5279;42.048;24.638;2024-02-16T07:31:42;1.43;;;1.33;;
10463;SDS011;5279;42.048;24.638;2024-02-16T07:34:09;1.93;;;1.33;;
10463;SDS011;5279;42.048;24.638;2024-02-16T07:36:36;1.50;;;1.40;;
10463;SDS011;5279;42.048;24.638;2024-02-16T07:39:03;1.40;;;1.30;;
10463;SDS011;5279;42.048;24.638;2024-02-16T07:41:30;1.40;;;1.30;;
10463;SDS011;5279;42.048;24.638;2024-02-16T07:43:57;1.43;;;1.33;;
10463;SDS011;5279;42.048;24.638;2024-02-16T07:46:25;1.67;;;1.57;;
10463;SDS011;5279;42.048;24.638;2024-02-16T07:48:52;1.70;;;1.60;;
10463;SDS011;5279;42.048;24.638;2024-02-16T07:51:18;1.30;;;1.20;;
10463;SDS011;5279;42.048;24.638;2024-02-16T07:53:45;1.50;;;1.40;;
10463;SDS011;5279;42.048;24.638;2024-02-16T07:56:12;1.40;;;1.30;;
10463;SDS011;5279;42.048;24.638;2024-02-16T07:58:40;3.37;;;2.30;;
10463;SDS011;5279;42.048;24.638;2024-02-16T08:01:07;2.27;;;2.07;;
10463;SDS011;5279;42.048;24.638;2024-02-16T08:03:37;4.40;;;2.43;;
10463;SDS011;5279;42.048;24.638;2024-02-16T08:06:04;4.43;;;3.07;;
10463;SDS011;5279;42.048;24.638;2024-02-16T08:08:31;3.83;;;2.77;;
10463;SDS011;5279;42.048;24.638;2024-02-16T08:10:58;1.50;;;1.40;;
10463;SDS011;5279;42.048;24.638;2024-02-16T08:13:24;1.50;;;1.40;;
10463;SDS011;5279;42.048;24.638;2024-02-16T08:15:51;1.50;;;1.40;;
10463;SDS011;5279;42.048;24.638;2024-02-16T08:18:18;1.20;;;1.20;;
10463;SDS011;5279;42.048;24.638;2024-02-16T08:20:56;1.50;;;1.40;;
10463;SDS011;5279;42.048;24.638;2024-02-16T08:23:22;1.23;;;1.20;;
10463;SDS011;5279;42.048;24.638;2024-02-16T08:25:50;1.20;;;1.10;;
10463;SDS011;5279;42.048;24.638;2024-02-16T08:28:16;1.37;;;1.27;;
10463;SDS011;5279;42.048;24.638;2024-02-16T08:30:43;2.13;;;1.73;;
10463;SDS011;5279;42.048;24.638;2024-02-16T08:33:10;2.27;;;2.07;;
10463;SDS011;5279;42.048;24.638;2024-02-16T08:35:37;2.50;;;2.30;;
10463;SDS011;5279;42.048;24.638;2024-02-16T08:38:05;4.20;;;3.77;;
10463;SDS011;5279;42.048;24.638;2024-02-16T08:40:35;4.03;;;3.63;;
10463;SDS011;5279;42.048;24.638;2024-02-16T08:43:02;5.77;;;3.57;;
10463;SDS011;5279;42.048;24.638;2024-02-16T08:45:30;2.57;;;2.20;;
10463;SDS011;5279;42.048;24.638;2024-02-16T08:47:57;2.30;;;2.10;;
10463;SDS011;5279;42.048;24.638;2024-02-16T08:50:25;2.83;;;2.33;;
10463;SDS011;5279;42.048;24.638;2024-02-16T08:52:51;2.30;;;2.10;;
10463;SDS011;5279;42.048;24.638;2024-02-16T08:55:21;3.73;;;2.33;;
10463;SDS011;5279;42.048;24.638;2024-02-16T08:57:47;2.90;;;2.00;;
10463;SDS011;5279;42.048;24.638;2024-02-16T09:00:15;2.57;;;2.27;;
10463;SDS011;5279;42.048;24.638;2024-02-16T09:02:42;3.13;;;2.83;;
10463;SDS011;5279;42.048;24.638;2024-02-16T09:05:10;5.40;;;2.83;;
10463;SDS011;5279;42.048;24.638;2024-02-16T09:07:36;6.33;;;2.80;;
10463;SDS011;5279;42.048;24.638;2024-02-16T09:10:04;4.00;;;2.90;;
10463;SDS011;5279;42.048;24.638;2024-02-16T09:12:33;4.77;;;2.70;;
10463;SDS011;5279;42.048;24.638;2024-02-16T09:15:00;3.20;;;2.40;;
10463;SDS011;5279;42.048;24.638;2024-02-16T09:17:26;4.53;;;2.60;;
10463;SDS011;5279;42.048;24.638;2024-02-16T09:19:53;2.47;;;2.27;;
10463;SDS011;5279;42.048;24.638;2024-02-16T09:22:20;2.60;;;2.40;;
10463;SDS011;5279;42.048;24.638;2024-02-16T09:24:46;4.30;;;2.33;;
10463;SDS011;5279;42.048;24.638;2024-02-16T09:27:13;4.20;;;2.50;;
10463;SDS011;5279;42.048;24.638;2024-02-16T09:29:41;3.60;;;2.50;;
10463;SDS011;5279;42.048;24.638;2024-02-16T09:32:08;4.13;;;2.90;;
10463;SDS011;5279;42.048;24.638;2024-02-16T09:34:35;3.30;;;2.43;;
10463;SDS011;5279;42.048;24.638;2024-02-16T09:37:02;3.43;;;3.13;;
10463;SDS011;5279;42.048;24.638;2024-02-16T09:39:29;2.50;;;2.00;;
10463;SDS011;5279;42.048;24.638;2024-02-16T09:41:56;2.53;;;2.13;;
10463;SDS011;5279;42.048;24.638;2024-02-16T09:44:23;3.73;;;2.90;;
10463;SDS011;5279;42.048;24.638;2024-02-16T09:46:51;5.83;;;4.37;;
10463;SDS011;5279;42.048;24.638;2024-02-16T09:49:20;3.20;;;2.90;;
10463;SDS011;5279;42.048;24.638;2024-02-16T09:51:47;2.67;;;2.47;;
10463;SDS011;5279;42.048;24.638;2024-02-16T09:54:14;2.70;;;2.50;;
10463;SDS011;5279;42.048;24.638;2024-02-16T09:56:42;2.33;;;2.13;;
10463;SDS011;5279;42.048;24.638;2024-02-16T09:59:10;3.60;;;2.30;;
10463;SDS011;5279;42.048;24.638;2024-02-16T10:01:37;3.73;;;2.00;;
10463;SDS011;5279;42.048;24.638;2024-02-16T10:04:08;2.73;;;1.93;;
10463;SDS011;5279;42.048;24.638;2024-02-16T10:06:45;8.50;;;2.47;;
10463;SDS011;5279;42.048;24.638;2024-02-16T10:09:21;2.47;;;2.27;;
10463;SDS011;5279;42.048;24.638;2024-02-16T10:11:48;3.10;;;2.17;;
10463;SDS011;5279;42.048;24.638;2024-02-16T10:14:15;3.00;;;1.90;;
10463;SDS011;5279;42.048;24.638;2024-02-16T10:16:42;2.07;;;1.90;;
10463;SDS011;5279;42.048;24.638;2024-02-16T10:19:10;1.87;;;1.67;;
10463;SDS011;5279;42.048;24.638;2024-02-16T10:21:37;2.57;;;1.70;;
10463;SDS011;5279;42.048;24.638;2024-02-16T10:24:05;1.50;;;1.40;;
10463;SDS011;5279;42.048;24.638;2024-02-16T10:26:33;2.45;;;1.50;;
10463;SDS011;5279;42.048;24.638;2024-02-16T10:29:02;2.58;;;1.65;;
10463;SDS011;5279;42.048;24.638;2024-02-16T10:31:30;2.13;;;1.92;;
10463;SDS011;5279;42.048;24.638;2024-02-16T10:33:59;1.70;;;1.60;;
10463;SDS011;5279;42.048;24.638;2024-02-16T10:36:26;2.27;;;1.80;;
10463;SDS011;5279;42.048;24.638;2024-02-16T10:38:54;1.90;;;1.70;;
10463;SDS011;5279;42.048;24.638;2024-02-16T10:41:22;2.00;;;1.70;;
10463;SDS011;5279;42.048;24.638;2024-02-16T10:43:53;2.03;;;1.80;;
10463;SDS011;5279;42.048;24.638;2024-02-16T10:46:20;2.00;;;1.80;;
10463;SDS011;5279;42.048;24.638;2024-02-16T10:48:48;2.13;;;1.80;;
10463;SDS011;5279;42.048;24.638;2024-02-16T10:51:14;2.03;;;1.50;;
10463;SDS011;5279;42.048;24.638;2024-02-16T10:53:45;5.53;;;1.80;;
10463;SDS011;5279;42.048;24.638;2024-02-16T10:56:13;1.63;;;1.40;;
10463;SDS011;5279;42.048;24.638;2024-02-16T10:58:40;1.97;;;1.60;;
10463;SDS011;5279;42.048;24.638;2024-02-16T11:01:07;2.80;;;1.70;;
10463;SDS011;5279;42.048;24.638;2024-02-16T11:03:37;1.70;;;1.53;;
10463;SDS011;5279;42.048;24.638;2024-02-16T11:06:11;2.13;;;1.60;;
10463;SDS011;5279;42.048;24.638;2024-02-16T11:08:41;1.40;;;1.30;;
10463;SDS011;5279;42.048;24.638;2024-02-16T11:11:09;3.53;;;1.50;;
10463;SDS011;5279;42.048;24.638;2024-02-16T11:13:38;1.50;;;1.40;;
10463;SDS011;5279;42.048;24.638;2024-02-16T11:16:06;1.60;;;1.50;;
10463;SDS011;5279;42.048;24.638;2024-02-16T11:18:37;2.60;;;1.50;;
10463;SDS011;5279;42.048;24.638;2024-02-16T11:21:05;1.60;;;1.50;;
10463;SDS011;5279;42.048;24.638;2024-02-16T11:23:34;2.20;;;1.70;;
10463;SDS011;5279;42.048;24.638;2024-02-16T11:26:03;1.85;;;1.50;;
10463;SDS011;5279;42.048;24.638;2024-02-16T11:28:33;1.83;;;1.65;;
10463;SDS011;5279;42.048;24.638;2024-02-16T11:31:01;4.00;;;1.90;;
10463;SDS011;5279;42.048;24.638;2024-02-16T11:33:28;1.70;;;1.60;;
10463;SDS011;5279;42.048;24.638;2024-02-16T11:35:56;2.40;;;2.20;;
10463;SDS011;5279;42.048;24.638;2024-02-16T11:38:23;2.10;;;1.90;;
10463;SDS011;5279;42.048;24.638;2024-02-16T11:40:56;1.90;;;1.73;;
10463;SDS011;5279;42.048;24.638;2024-02-16T11:43:24;2.97;;;1.70;;
10463;SDS011;5279;42.048;24.638;2024-02-16T11:45:53;2.53;;;1.70;;
10463;SDS011;5279;42.048;24.638;2024-02-16T11:48:20;2.03;;;1.70;;
10463;SDS011;5279;42.048;24.638;2024-02-16T11:50:48;1.70;;;1.60;;
10463;SDS011;5279;42.048;24.638;2024-02-16T11:53:18;1.67;;;1.58;;
10463;SDS011;5279;42.048;24.638;2024-02-16T11:55:48;2.25;;;1.67;;
10463;SDS011;5279;42.048;24.638;2024-02-16T11:58:16;2.42;;;1.83;;
10463;SDS011;5279;42.048;24.638;2024-02-16T12:00:44;2.13;;;1.60;;
10463;SDS011;5279;42.048;24.638;2024-02-16T12:03:12;1.60;;;1.50;;
10463;SDS011;5279;42.048;24.638;2024-02-16T12:05:49;2.20;;;1.80;;
10463;SDS011;5279;42.048;24.638;2024-02-16T12:08:16;2.53;;;1.90;;
10463;SDS011;5279;42.048;24.638;2024-02-16T12:10:43;1.90;;;1.67;;
10463;SDS011;5279;42.048;24.638;2024-02-16T12:13:10;2.00;;;1.77;;
10463;SDS011;5279;42.048;24.638;2024-02-16T12:15:37;1.70;;;1.60;;
10463;SDS011;5279;42.048;24.638;2024-02-16T12:18:04;2.00;;;1.90;;
10463;SDS011;5279;42.048;24.638;2024-02-16T12:20:32;1.63;;;1.53;;
10463;SDS011;5279;42.048;24.638;2024-02-16T12:22:59;1.83;;;1.60;;
10463;SDS011;5279;42.048;24.638;2024-02-16T12:25:37;1.50;;;1.40;;
10463;SDS011;5279;42.048;24.638;2024-02-16T12:28:04;1.75;;;1.65;;
10463;SDS011;5279;42.048;24.638;2024-02-16T12:30:31;1.80;;;1.70;;
10463;SDS011;5279;42.048;24.638;2024-02-16T12:32:57;1.70;;;1.60;;
10463;SDS011;5279;42.048;24.638;2024-02-16T12:35:24;1.60;;;1.50;;
10463;SDS011;5279;42.048;24.638;2024-02-16T12:37:52;1.63;;;1.52;;
10463;SDS011;5279;42.048;24.638;2024-02-16T12:40:19;1.95;;;1.63;;
10463;SDS011;5279;42.048;24.638;2024-02-16T12:42:46;2.70;;;1.70;;
10463;SDS011;5279;42.048;24.638;2024-02-16T12:45:13;2.77;;;2.17;;
10463;SDS011;5279;42.048;24.638;2024-02-16T12:47:41;2.20;;;1.90;;
10463;SDS011;5279;42.048;24.638;2024-02-16T12:50:08;2.73;;;1.77;;
10463;SDS011;5279;42.048;24.638;2024-02-16T12:52:35;2.57;;;2.07;;
10463;SDS011;5279;42.048;24.638;2024-02-16T12:55:05;3.10;;;2.00;;
10463;SDS011;5279;42.048;24.638;2024-02-16T12:57:33;2.50;;;1.90;;
10463;SDS011;5279;42.048;24.638;2024-02-16T13:00:00;2.23;;;2.03;;
10463;SDS011;5279;42.048;24.638;2024-02-16T13:02:28;2.23;;;2.00;;
10463;SDS011;5279;42.048;24.638;2024-02-16T13:04:55;2.27;;;1.77;;
10463;SDS011;5279;42.048;24.638;2024-02-16T13:07:21;2.00;;;1.90;;
10463;SDS011;5279;42.048;24.638;2024-02-16T13:09:49;2.15;;;1.95;;
10463;SDS011;5279;42.048;24.638;2024-02-16T13:12:17;2.10;;;1.90;;
10463;SDS011;5279;42.048;24.638;2024-02-16T13:14:45;1.60;;;1.50;;
10463;SDS011;5279;42.048;24.638;2024-02-16T13:17:12;3.22;;;1.70;;
10463;SDS011;5279;42.048;24.638;2024-02-16T13:19:39;1.85;;;1.75;;
10463;SDS011;5279;42.048;24.638;2024-02-16T13:22:06;2.78;;;1.70;;
10463;SDS011;5279;42.048;24.638;2024-02-16T13:24:32;1.88;;;1.52;;
10463;SDS011;5279;42.048;24.638;2024-02-16T13:26:59;1.75;;;1.65;;
10463;SDS011;5279;42.048;24.638;2024-02-16T13:29:29;3.60;;;1.80;;
10463;SDS011;5279;42.048;24.638;2024-02-16T13:31:55;1.73;;;1.63;;
10463;SDS011;5279;42.048;24.638;2024-02-16T13:34:22;1.50;;;1.40;;
10463;SDS011;5279;42.048;24.638;2024-02-16T13:36:50;2.83;;;1.80;;
10463;SDS011;5279;42.048;24.638;2024-02-16T13:39:17;1.60;;;1.50;;
10463;SDS011;5279;42.048;24.638;2024-02-16T13:41:44;1.60;;;1.50;;
10463;SDS011;5279;42.048;24.638;2024-02-16T13:44:13;2.45;;;1.88;;
10463;SDS011;5279;42.048;24.638;2024-02-16T13:46:42;1.67;;;1.45;;
10463;SDS011;5279;42.048;24.638;2024-02-16T13:49:10;1.95;;;1.85;;
10463;SDS011;5279;42.048;24.638;2024-02-16T13:51:37;1.60;;;1.50;;
10463;SDS011;5279;42.048;24.638;2024-02-16T13:54:03;1.88;;;1.65;;
10463;SDS011;5279;42.048;24.638;2024-02-16T13:56:30;1.90;;;1.65;;
10463;SDS011;5279;42.048;24.638;2024-02-16T13:58:57;3.22;;;1.73;;
10463;SDS011;5279;42.048;24.638;2024-02-16T14:01:24;2.17;;;1.95;;
10463;SDS011;5279;42.048;24.638;2024-02-16T14:03:52;1.80;;;1.70;;
10463;SDS011;5279;42.048;24.638;2024-02-16T14:06:19;2.08;;;1.88;;
10463;SDS011;5279;42.048;24.638;2024-02-16T14:08:46;3.42;;;2.30;;
10463;SDS011;5279;42.048;24.638;2024-02-16T14:11:14;2.85;;;1.90;;
10463;SDS011;5279;42.048;24.638;2024-02-16T14:13:40;1.98;;;1.80;;
10463;SDS011;5279;42.048;24.638;2024-02-16T14:16:07;1.60;;;1.42;;
10463;SDS011;5279;42.048;24.638;2024-02-16T14:18:35;3.10;;;1.67;;
10463;SDS011;5279;42.048;24.638;2024-02-16T14:21:03;1.65;;;1.55;;
10463;SDS011;5279;42.048;24.638;2024-02-16T14:23:30;1.88;;;1.70;;
10463;SDS011;5279;42.048;24.638;2024-02-16T14:25:57;2.63;;;1.90;;
10463;SDS011;5279;42.048;24.638;2024-02-16T14:28:24;1.65;;;1.50;;
10463;SDS011;5279;42.048;24.638;2024-02-16T14:30:51;1.83;;;1.67;;
10463;SDS011;5279;42.048;24.638;2024-02-16T14:33:18;2.13;;;1.75;;
10463;SDS011;5279;42.048;24.638;2024-02-16T14:35:45;5.32;;;1.80;;
10463;SDS011;5279;42.048;24.638;2024-02-16T14:38:14;1.95;;;1.80;;
10463;SDS011;5279;42.048;24.638;2024-02-16T14:40:41;1.70;;;1.58;;
10463;SDS011;5279;42.048;24.638;2024-02-16T14:43:08;2.88;;;1.80;;
10463;SDS011;5279;42.048;24.638;2024-02-16T14:45:35;1.70;;;1.60;;
10463;SDS011;5279;42.048;24.638;2024-02-16T14:48:03;2.53;;;1.60;;
10463;SDS011;5279;42.048;24.638;2024-02-16T14:50:31;2.42;;;1.90;;